sensor_id;sensor_type;location;lat;lon;timestamp;P1;durP1;ratioP1;P2;durP2;ratioP2
65641;SDS011;52340;-6.720;108.544;2024-01-30T00:00:42;190.63;;;161.90;;
65641;SDS011;52340;-6.720;108.544;2024-01-30T00:01:44;180.27;;;147.85;;
65641;SDS011;52340;-6.720;108.544;2024-01-30T00:02:48;173.13;;;145.80;;
65641;SDS011;52340;-6.720;108.544;2024-01-30T00:03:49;170.63;;;133.73;;
65641;SDS011;52340;-6.720;108.544;2024-01-30T00:04:51;154.52;;;118.28;;
65641;SDS011;52340;-6.720;108.544;2024-01-30T00:05:53;141.30;;;107.95;;
65641;SDS011;52340;-6.720;108.544;2024-01-30T00:06:55;129.05;;;93.47;;
65641;SDS011;52340;-6.720;108.544;2024-01-30T00:07:57;122.90;;;88.20;;
65641;SDS011;52340;-6.720;108.544;2024-01-30T00:08:58;117.40;;;77.82;;
65641;SDS011;52340;-6.720;108.544;2024-01-30T00:10:02;91.93;;;67.60;;
65641;SDS011;52340;-6.720;108.544;2024-01-30T00:11:04;96.88;;;65.72;;
65641;SDS011;52340;-6.720;108.544;2024-01-30T00:12:06;88.07;;;61.97;;
65641;SDS011;52340;-6.720;108.544;2024-01-30T00:13:08;92.25;;;62.15;;
65641;SDS011;52340;-6.720;108.544;2024-01-30T00:14:09;84.72;;;57.20;;
65641;SDS011;52340;-6.720;108.544;2024-01-30T00:15:11;84.32;;;58.58;;
65641;SDS011;52340;-6.720;108.544;2024-01-30T00:16:22;81.00;;;53.42;;
65641;SDS011;52340;-6.720;108.544;2024-01-30T00:17:24;81.57;;;51.78;;
65641;SDS011;52340;-6.720;108.544;2024-01-30T00:18:26;75.03;;;52.25;;
65641;SDS011;52340;-6.720;108.544;2024-01-30T00:19:28;76.03;;;48.63;;
65641;SDS011;52340;-6.720;108.544;2024-01-30T00:20:30;72.60;;;48.08;;
65641;SDS011;52340;-6.720;108.544;2024-01-30T00:21:31;68.60;;;45.53;;
65641;SDS011;52340;-6.720;108.544;2024-01-30T00:22:33;67.85;;;45.20;;
65641;SDS011;52340;-6.720;108.544;2024-01-30T00:23:37;67.35;;;45.22;;
65641;SDS011;52340;-6.720;108.544;2024-01-30T00:24:39;66.97;;;44.83;;
65641;SDS011;52340;-6.720;108.544;2024-01-30T00:25:42;66.00;;;44.22;;
65641;SDS011;52340;-6.720;108.544;2024-01-30T00:26:44;72.70;;;44.75;;
65641;SDS011;52340;-6.720;108.544;2024-01-30T00:27:46;70.10;;;45.00;;
65641;SDS011;52340;-6.720;108.544;2024-01-30T00:28:48;60.42;;;43.08;;
65641;SDS011;52340;-6.720;108.544;2024-01-30T00:29:50;64.28;;;43.72;;
65641;SDS011;52340;-6.720;108.544;2024-01-30T00:30:54;61.78;;;40.88;;
65641;SDS011;52340;-6.720;108.544;2024-01-30T00:31:56;66.30;;;43.13;;
65641;SDS011;52340;-6.720;108.544;2024-01-30T00:33:00;63.53;;;41.38;;
65641;SDS011;52340;-6.720;108.544;2024-01-30T00:34:02;63.30;;;41.28;;
65641;SDS011;52340;-6.720;108.544;2024-01-30T00:35:04;57.83;;;40.65;;
65641;SDS011;52340;-6.720;108.544;2024-01-30T00:36:06;63.33;;;41.47;;
65641;SDS011;52340;-6.720;108.544;2024-01-30T00:37:08;60.10;;;40.22;;
65641;SDS011;52340;-6.720;108.544;2024-01-30T00:38:10;62.75;;;40.97;;
65641;SDS011;52340;-6.720;108.544;2024-01-30T00:39:12;60.30;;;38.80;;
65641;SDS011;52340;-6.720;108.544;2024-01-30T00:40:14;57.65;;;39.38;;
65641;SDS011;52340;-6.720;108.544;2024-01-30T00:41:19;56.47;;;38.90;;
65641;SDS011;52340;-6.720;108.544;2024-01-30T00:42:20;57.42;;;39.15;;
65641;SDS011;52340;-6.720;108.544;2024-01-30T00:43:22;53.38;;;38.10;;
65641;SDS011;52340;-6.720;108.544;2024-01-30T00:44:24;55.75;;;37.92;;
65641;SDS011;52340;-6.720;108.544;2024-01-30T00:45:25;54.55;;;36.97;;
65641;SDS011;52340;-6.720;108.544;2024-01-30T00:46:27;57.97;;;37.40;;
65641;SDS011;52340;-6.720;108.544;2024-01-30T00:47:29;56.25;;;37.83;;
65641;SDS011;52340;-6.720;108.544;2024-01-30T00:48:31;60.00;;;36.47;;
65641;SDS011;52340;-6.720;108.544;2024-01-30T00:49:32;53.30;;;36.55;;
65641;SDS011;52340;-6.720;108.544;2024-01-30T00:50:34;56.58;;;37.38;;
65641;SDS011;52340;-6.720;108.544;2024-01-30T00:51:36;51.55;;;35.45;;
65641;SDS011;52340;-6.720;108.544;2024-01-30T00:52:38;53.17;;;36.30;;
65641;SDS011;52340;-6.720;108.544;2024-01-30T00:53:40;61.20;;;37.85;;
65641;SDS011;52340;-6.720;108.544;2024-01-30T00:54:42;61.15;;;37.20;;
65641;SDS011;52340;-6.720;108.544;2024-01-30T00:55:44;61.72;;;36.92;;
65641;SDS011;52340;-6.720;108.544;2024-01-30T00:56:50;54.85;;;36.85;;
65641;SDS011;52340;-6.720;108.544;2024-01-30T00:57:52;54.13;;;35.63;;
65641;SDS011;52340;-6.720;108.544;2024-01-30T00:58:54;52.70;;;34.88;;
65641;SDS011;52340;-6.720;108.544;2024-01-30T00:59:56;54.10;;;34.60;;
65641;SDS011;52340;-6.720;108.544;2024-01-30T01:00:58;52.00;;;34.55;;
65641;SDS011;52340;-6.720;108.544;2024-01-30T01:02:00;52.17;;;35.00;;
65641;SDS011;52340;-6.720;108.544;2024-01-30T01:03:02;54.50;;;35.08;;
65641;SDS011;52340;-6.720;108.544;2024-01-30T01:04:04;54.33;;;35.42;;
65641;SDS011;52340;-6.720;108.544;2024-01-30T01:05:09;58.58;;;35.88;;
65641;SDS011;52340;-6.720;108.544;2024-01-30T01:06:11;61.70;;;35.28;;
65641;SDS011;52340;-6.720;108.544;2024-01-30T01:07:13;52.53;;;34.30;;
65641;SDS011;52340;-6.720;108.544;2024-01-30T01:08:14;55.55;;;34.33;;
65641;SDS011;52340;-6.720;108.544;2024-01-30T01:09:16;56.92;;;34.90;;
65641;SDS011;52340;-6.720;108.544;2024-01-30T01:10:18;55.35;;;34.00;;
65641;SDS011;52340;-6.720;108.544;2024-01-30T01:11:21;54.30;;;34.92;;
65641;SDS011;52340;-6.720;108.544;2024-01-30T01:12:24;55.22;;;34.60;;
65641;SDS011;52340;-6.720;108.544;2024-01-30T01:13:26;58.67;;;34.92;;
65641;SDS011;52340;-6.720;108.544;2024-01-30T01:14:28;54.05;;;33.63;;
65641;SDS011;52340;-6.720;108.544;2024-01-30T01:15:29;53.70;;;32.28;;
65641;SDS011;52340;-6.720;108.544;2024-01-30T01:16:31;50.92;;;32.65;;
65641;SDS011;52340;-6.720;108.544;2024-01-30T01:17:33;55.25;;;33.30;;
65641;SDS011;52340;-6.720;108.544;2024-01-30T01:18:35;56.20;;;33.70;;
65641;SDS011;52340;-6.720;108.544;2024-01-30T01:19:37;53.05;;;31.08;;
65641;SDS011;52340;-6.720;108.544;2024-01-30T01:20:38;46.17;;;25.85;;
65641;SDS011;52340;-6.720;108.544;2024-01-30T01:21:40;35.95;;;21.80;;
65641;SDS011;52340;-6.720;108.544;2024-01-30T01:22:42;37.28;;;23.13;;
65641;SDS011;52340;-6.720;108.544;2024-01-30T01:23:44;34.13;;;21.30;;
65641;SDS011;52340;-6.720;108.544;2024-01-30T01:24:46;36.70;;;20.33;;
65641;SDS011;52340;-6.720;108.544;2024-01-30T01:25:47;35.88;;;20.45;;
65641;SDS011;52340;-6.720;108.544;2024-01-30T01:26:49;34.20;;;20.33;;
65641;SDS011;52340;-6.720;108.544;2024-01-30T01:27:53;35.03;;;20.20;;
65641;SDS011;52340;-6.720;108.544;2024-01-30T01:28:55;36.60;;;20.23;;
65641;SDS011;52340;-6.720;108.544;2024-01-30T01:29:56;34.60;;;20.27;;
65641;SDS011;52340;-6.720;108.544;2024-01-30T01:30:58;36.13;;;19.45;;
65641;SDS011;52340;-6.720;108.544;2024-01-30T01:32:00;32.40;;;18.33;;
65641;SDS011;52340;-6.720;108.544;2024-01-30T01:33:02;31.55;;;19.02;;
65641;SDS011;52340;-6.720;108.544;2024-01-30T01:34:03;31.15;;;19.55;;
65641;SDS011;52340;-6.720;108.544;2024-01-30T01:35:05;35.17;;;20.35;;
65641;SDS011;52340;-6.720;108.544;2024-01-30T01:36:07;34.38;;;21.38;;
65641;SDS011;52340;-6.720;108.544;2024-01-30T01:37:09;36.65;;;22.27;;
65641;SDS011;52340;-6.720;108.544;2024-01-30T01:38:11;36.72;;;20.90;;
65641;SDS011;52340;-6.720;108.544;2024-01-30T01:39:12;32.25;;;19.85;;
65641;SDS011;52340;-6.720;108.544;2024-01-30T01:40:14;37.67;;;20.98;;
65641;SDS011;52340;-6.720;108.544;2024-01-30T01:41:16;33.60;;;19.77;;
65641;SDS011;52340;-6.720;108.544;2024-01-30T01:42:20;36.67;;;18.95;;
65641;SDS011;52340;-6.720;108.544;2024-01-30T01:43:23;33.70;;;18.38;;
65641;SDS011;52340;-6.720;108.544;2024-01-30T01:44:25;28.38;;;16.38;;
65641;SDS011;52340;-6.720;108.544;2024-01-30T01:45:28;33.03;;;18.50;;
65641;SDS011;52340;-6.720;108.544;2024-01-30T01:46:30;31.85;;;17.40;;
65641;SDS011;52340;-6.720;108.544;2024-01-30T01:47:33;28.90;;;16.80;;
65641;SDS011;52340;-6.720;108.544;2024-01-30T01:48:35;30.02;;;16.55;;
65641;SDS011;52340;-6.720;108.544;2024-01-30T01:49:37;31.45;;;16.67;;
65641;SDS011;52340;-6.720;108.544;2024-01-30T01:50:42;24.23;;;14.00;;
65641;SDS011;52340;-6.720;108.544;2024-01-30T01:51:44;28.00;;;15.57;;
65641;SDS011;52340;-6.720;108.544;2024-01-30T01:52:47;32.65;;;17.02;;
65641;SDS011;52340;-6.720;108.544;2024-01-30T01:53:49;31.45;;;16.70;;
65641;SDS011;52340;-6.720;108.544;2024-01-30T01:54:51;31.77;;;17.92;;
65641;SDS011;52340;-6.720;108.544;2024-01-30T01:55:53;34.38;;;21.52;;
65641;SDS011;52340;-6.720;108.544;2024-01-30T01:56:56;36.63;;;20.95;;
65641;SDS011;52340;-6.720;108.544;2024-01-30T01:57:57;34.63;;;19.35;;
65641;SDS011;52340;-6.720;108.544;2024-01-30T01:59:04;31.90;;;18.48;;
65641;SDS011;52340;-6.720;108.544;2024-01-30T02:00:07;34.28;;;17.85;;
65641;SDS011;52340;-6.720;108.544;2024-01-30T02:01:10;30.23;;;17.77;;
65641;SDS011;52340;-6.720;108.544;2024-01-30T02:02:12;31.15;;;17.90;;
65641;SDS011;52340;-6.720;108.544;2024-01-30T02:03:16;30.13;;;17.85;;
65641;SDS011;52340;-6.720;108.544;2024-01-30T02:04:19;27.77;;;15.43;;
65641;SDS011;52340;-6.720;108.544;2024-01-30T02:05:21;27.55;;;15.35;;
65641;SDS011;52340;-6.720;108.544;2024-01-30T02:06:25;28.95;;;15.80;;
65641;SDS011;52340;-6.720;108.544;2024-01-30T02:07:27;26.50;;;14.82;;
65641;SDS011;52340;-6.720;108.544;2024-01-30T02:08:29;26.75;;;14.07;;
65641;SDS011;52340;-6.720;108.544;2024-01-30T02:09:34;28.15;;;15.27;;
65641;SDS011;52340;-6.720;108.544;2024-01-30T02:10:35;27.48;;;15.88;;
65641;SDS011;52340;-6.720;108.544;2024-01-30T02:11:37;24.63;;;13.80;;
65641;SDS011;52340;-6.720;108.544;2024-01-30T02:12:39;22.30;;;12.57;;
65641;SDS011;52340;-6.720;108.544;2024-01-30T02:13:41;22.17;;;12.68;;
65641;SDS011;52340;-6.720;108.544;2024-01-30T02:14:48;23.88;;;12.90;;
65641;SDS011;52340;-6.720;108.544;2024-01-30T02:15:51;22.67;;;13.38;;
65641;SDS011;52340;-6.720;108.544;2024-01-30T02:16:52;24.20;;;14.07;;
65641;SDS011;52340;-6.720;108.544;2024-01-30T02:17:54;21.77;;;14.07;;
65641;SDS011;52340;-6.720;108.544;2024-01-30T02:18:56;23.17;;;13.55;;
65641;SDS011;52340;-6.720;108.544;2024-01-30T02:19:58;22.38;;;13.63;;
65641;SDS011;52340;-6.720;108.544;2024-01-30T02:20:59;22.50;;;14.05;;
65641;SDS011;52340;-6.720;108.544;2024-01-30T02:22:06;21.27;;;13.48;;
65641;SDS011;52340;-6.720;108.544;2024-01-30T02:23:08;20.95;;;13.75;;
65641;SDS011;52340;-6.720;108.544;2024-01-30T02:24:13;21.85;;;13.48;;
65641;SDS011;52340;-6.720;108.544;2024-01-30T02:25:15;22.38;;;13.55;;
65641;SDS011;52340;-6.720;108.544;2024-01-30T02:26:16;23.75;;;13.57;;
65641;SDS011;52340;-6.720;108.544;2024-01-30T02:27:18;22.77;;;13.45;;
65641;SDS011;52340;-6.720;108.544;2024-01-30T02:28:20;20.85;;;13.10;;
65641;SDS011;52340;-6.720;108.544;2024-01-30T02:29:22;24.73;;;13.30;;
65641;SDS011;52340;-6.720;108.544;2024-01-30T02:30:24;20.13;;;13.02;;
65641;SDS011;52340;-6.720;108.544;2024-01-30T02:31:28;26.95;;;14.35;;
65641;SDS011;52340;-6.720;108.544;2024-01-30T02:32:29;22.02;;;14.40;;
65641;SDS011;52340;-6.720;108.544;2024-01-30T02:33:31;24.63;;;15.27;;
65641;SDS011;52340;-6.720;108.544;2024-01-30T02:34:33;23.38;;;14.88;;
65641;SDS011;52340;-6.720;108.544;2024-01-30T02:35:35;25.33;;;15.88;;
65641;SDS011;52340;-6.720;108.544;2024-01-30T02:36:38;26.55;;;17.65;;
65641;SDS011;52340;-6.720;108.544;2024-01-30T02:37:42;27.40;;;17.27;;
65641;SDS011;52340;-6.720;108.544;2024-01-30T02:38:44;26.88;;;17.85;;
65641;SDS011;52340;-6.720;108.544;2024-01-30T02:39:46;25.90;;;17.48;;
65641;SDS011;52340;-6.720;108.544;2024-01-30T02:40:48;30.25;;;17.55;;
65641;SDS011;52340;-6.720;108.544;2024-01-30T02:41:49;27.30;;;16.13;;
65641;SDS011;52340;-6.720;108.544;2024-01-30T02:42:51;25.40;;;15.18;;
65641;SDS011;52340;-6.720;108.544;2024-01-30T02:43:53;26.05;;;15.35;;
65641;SDS011;52340;-6.720;108.544;2024-01-30T02:44:55;23.92;;;14.07;;
65641;SDS011;52340;-6.720;108.544;2024-01-30T02:45:56;23.65;;;14.35;;
65641;SDS011;52340;-6.720;108.544;2024-01-30T02:46:58;22.60;;;14.02;;
65641;SDS011;52340;-6.720;108.544;2024-01-30T02:48:00;22.73;;;14.77;;
65641;SDS011;52340;-6.720;108.544;2024-01-30T02:49:02;24.67;;;15.40;;
65641;SDS011;52340;-6.720;108.544;2024-01-30T02:50:04;24.65;;;16.02;;
65641;SDS011;52340;-6.720;108.544;2024-01-30T02:51:06;24.60;;;16.10;;
65641;SDS011;52340;-6.720;108.544;2024-01-30T02:52:10;26.02;;;17.00;;
65641;SDS011;52340;-6.720;108.544;2024-01-30T02:53:12;27.42;;;16.85;;
65641;SDS011;52340;-6.720;108.544;2024-01-30T02:54:14;26.30;;;17.42;;
65641;SDS011;52340;-6.720;108.544;2024-01-30T02:55:16;25.75;;;16.98;;
65641;SDS011;52340;-6.720;108.544;2024-01-30T02:56:18;25.35;;;17.02;;
65641;SDS011;52340;-6.720;108.544;2024-01-30T02:57:20;26.95;;;18.08;;
65641;SDS011;52340;-6.720;108.544;2024-01-30T02:58:22;24.38;;;17.60;;
65641;SDS011;52340;-6.720;108.544;2024-01-30T02:59:23;27.90;;;17.73;;
65641;SDS011;52340;-6.720;108.544;2024-01-30T03:00:25;28.10;;;18.63;;
65641;SDS011;52340;-6.720;108.544;2024-01-30T03:01:27;28.88;;;18.85;;
65641;SDS011;52340;-6.720;108.544;2024-01-30T03:02:29;30.95;;;20.20;;
65641;SDS011;52340;-6.720;108.544;2024-01-30T03:03:31;29.77;;;19.92;;
65641;SDS011;52340;-6.720;108.544;2024-01-30T03:04:33;35.13;;;21.13;;
65641;SDS011;52340;-6.720;108.544;2024-01-30T03:05:34;32.20;;;21.08;;
65641;SDS011;52340;-6.720;108.544;2024-01-30T03:06:36;32.08;;;20.83;;
65641;SDS011;52340;-6.720;108.544;2024-01-30T03:07:41;30.85;;;21.42;;
65641;SDS011;52340;-6.720;108.544;2024-01-30T03:08:42;29.10;;;20.58;;
65641;SDS011;52340;-6.720;108.544;2024-01-30T03:09:44;32.13;;;21.48;;
65641;SDS011;52340;-6.720;108.544;2024-01-30T03:10:46;27.85;;;20.45;;
65641;SDS011;52340;-6.720;108.544;2024-01-30T03:11:50;31.67;;;19.92;;
65641;SDS011;52340;-6.720;108.544;2024-01-30T03:12:52;26.98;;;19.02;;
65641;SDS011;52340;-6.720;108.544;2024-01-30T03:13:54;29.20;;;18.48;;
65641;SDS011;52340;-6.720;108.544;2024-01-30T03:14:55;35.35;;;19.88;;
65641;SDS011;52340;-6.720;108.544;2024-01-30T03:15:57;27.83;;;18.73;;
65641;SDS011;52340;-6.720;108.544;2024-01-30T03:16:59;30.55;;;18.27;;
65641;SDS011;52340;-6.720;108.544;2024-01-30T03:18:01;29.05;;;17.80;;
65641;SDS011;52340;-6.720;108.544;2024-01-30T03:19:03;25.80;;;17.15;;
65641;SDS011;52340;-6.720;108.544;2024-01-30T03:20:06;30.02;;;19.77;;
65641;SDS011;52340;-6.720;108.544;2024-01-30T03:21:08;32.72;;;21.05;;
65641;SDS011;52340;-6.720;108.544;2024-01-30T03:22:10;30.80;;;20.63;;
65641;SDS011;52340;-6.720;108.544;2024-01-30T03:23:13;29.65;;;21.30;;
65641;SDS011;52340;-6.720;108.544;2024-01-30T03:24:15;32.03;;;21.85;;
65641;SDS011;52340;-6.720;108.544;2024-01-30T03:25:17;34.38;;;22.73;;
65641;SDS011;52340;-6.720;108.544;2024-01-30T03:26:19;34.40;;;23.10;;
65641;SDS011;52340;-6.720;108.544;2024-01-30T03:27:20;32.42;;;21.85;;
65641;SDS011;52340;-6.720;108.544;2024-01-30T03:28:22;31.95;;;22.23;;
65641;SDS011;52340;-6.720;108.544;2024-01-30T03:29:24;32.28;;;22.17;;
65641;SDS011;52340;-6.720;108.544;2024-01-30T03:30:26;34.22;;;21.88;;
65641;SDS011;52340;-6.720;108.544;2024-01-30T03:31:28;26.73;;;19.13;;
65641;SDS011;52340;-6.720;108.544;2024-01-30T03:32:29;21.33;;;13.23;;
65641;SDS011;52340;-6.720;108.544;2024-01-30T03:33:31;17.58;;;11.48;;
65641;SDS011;52340;-6.720;108.544;2024-01-30T03:34:33;20.65;;;10.43;;
65641;SDS011;52340;-6.720;108.544;2024-01-30T03:35:35;15.75;;;9.80;;
65641;SDS011;52340;-6.720;108.544;2024-01-30T03:36:37;17.60;;;9.95;;
65641;SDS011;52340;-6.720;108.544;2024-01-30T03:37:39;16.50;;;10.63;;
65641;SDS011;52340;-6.720;108.544;2024-01-30T03:38:42;19.35;;;10.88;;
65641;SDS011;52340;-6.720;108.544;2024-01-30T03:39:44;18.33;;;11.07;;
65641;SDS011;52340;-6.720;108.544;2024-01-30T03:40:46;20.70;;;12.63;;
65641;SDS011;52340;-6.720;108.544;2024-01-30T03:41:48;19.10;;;13.10;;
65641;SDS011;52340;-6.720;108.544;2024-01-30T03:42:50;22.90;;;14.38;;
65641;SDS011;52340;-6.720;108.544;2024-01-30T03:43:52;22.13;;;15.73;;
65641;SDS011;52340;-6.720;108.544;2024-01-30T03:44:54;23.33;;;14.93;;
65641;SDS011;52340;-6.720;108.544;2024-01-30T03:45:56;23.88;;;14.60;;
65641;SDS011;52340;-6.720;108.544;2024-01-30T03:46:57;22.00;;;14.18;;
65641;SDS011;52340;-6.720;108.544;2024-01-30T03:47:59;21.48;;;14.05;;
65641;SDS011;52340;-6.720;108.544;2024-01-30T03:49:01;24.33;;;14.63;;
65641;SDS011;52340;-6.720;108.544;2024-01-30T03:50:05;21.75;;;14.52;;
65641;SDS011;52340;-6.720;108.544;2024-01-30T03:51:07;21.10;;;13.80;;
65641;SDS011;52340;-6.720;108.544;2024-01-30T03:52:10;22.45;;;14.15;;
65641;SDS011;52340;-6.720;108.544;2024-01-30T03:53:12;26.25;;;15.68;;
65641;SDS011;52340;-6.720;108.544;2024-01-30T03:54:15;30.55;;;19.58;;
65641;SDS011;52340;-6.720;108.544;2024-01-30T03:55:17;29.52;;;18.90;;
65641;SDS011;52340;-6.720;108.544;2024-01-30T03:56:19;25.85;;;16.83;;
65641;SDS011;52340;-6.720;108.544;2024-01-30T03:57:21;27.33;;;15.07;;
65641;SDS011;52340;-6.720;108.544;2024-01-30T03:58:22;23.35;;;14.32;;
65641;SDS011;52340;-6.720;108.544;2024-01-30T03:59:24;25.13;;;12.50;;
65641;SDS011;52340;-6.720;108.544;2024-01-30T04:00:26;21.42;;;11.48;;
65641;SDS011;52340;-6.720;108.544;2024-01-30T04:01:27;20.58;;;11.68;;
65641;SDS011;52340;-6.720;108.544;2024-01-30T04:02:32;20.25;;;10.77;;
65641;SDS011;52340;-6.720;108.544;2024-01-30T04:03:34;33.65;;;12.23;;
65641;SDS011;52340;-6.720;108.544;2024-01-30T04:04:36;18.55;;;9.45;;
65641;SDS011;52340;-6.720;108.544;2024-01-30T04:05:38;16.85;;;10.30;;
65641;SDS011;52340;-6.720;108.544;2024-01-30T04:06:39;18.13;;;9.13;;
65641;SDS011;52340;-6.720;108.544;2024-01-30T04:07:41;17.83;;;9.65;;
65641;SDS011;52340;-6.720;108.544;2024-01-30T04:08:45;21.38;;;10.45;;
65641;SDS011;52340;-6.720;108.544;2024-01-30T04:09:49;18.92;;;9.45;;
65641;SDS011;52340;-6.720;108.544;2024-01-30T04:10:50;18.38;;;8.65;;
65641;SDS011;52340;-6.720;108.544;2024-01-30T04:11:52;15.70;;;8.68;;
65641;SDS011;52340;-6.720;108.544;2024-01-30T04:12:54;17.17;;;8.48;;
65641;SDS011;52340;-6.720;108.544;2024-01-30T04:13:56;15.13;;;7.50;;
65641;SDS011;52340;-6.720;108.544;2024-01-30T04:15:00;16.33;;;8.25;;
65641;SDS011;52340;-6.720;108.544;2024-01-30T04:16:02;21.02;;;9.85;;
65641;SDS011;52340;-6.720;108.544;2024-01-30T04:17:04;19.48;;;9.77;;
65641;SDS011;52340;-6.720;108.544;2024-01-30T04:18:05;20.40;;;10.02;;
65641;SDS011;52340;-6.720;108.544;2024-01-30T04:19:07;21.38;;;10.48;;
65641;SDS011;52340;-6.720;108.544;2024-01-30T04:20:13;21.35;;;11.15;;
65641;SDS011;52340;-6.720;108.544;2024-01-30T04:21:15;19.05;;;10.63;;
65641;SDS011;52340;-6.720;108.544;2024-01-30T04:22:16;20.98;;;10.63;;
65641;SDS011;52340;-6.720;108.544;2024-01-30T04:23:18;14.30;;;8.13;;
65641;SDS011;52340;-6.720;108.544;2024-01-30T04:24:21;15.70;;;8.40;;
65641;SDS011;52340;-6.720;108.544;2024-01-30T04:25:24;18.27;;;8.40;;
65641;SDS011;52340;-6.720;108.544;2024-01-30T04:26:26;16.23;;;8.55;;
65641;SDS011;52340;-6.720;108.544;2024-01-30T04:27:28;16.00;;;8.35;;
65641;SDS011;52340;-6.720;108.544;2024-01-30T04:28:30;14.48;;;6.95;;
65641;SDS011;52340;-6.720;108.544;2024-01-30T04:29:32;16.42;;;7.22;;
65641;SDS011;52340;-6.720;108.544;2024-01-30T04:30:34;14.07;;;6.85;;
65641;SDS011;52340;-6.720;108.544;2024-01-30T04:31:36;13.35;;;6.75;;
65641;SDS011;52340;-6.720;108.544;2024-01-30T04:32:38;14.90;;;6.82;;
65641;SDS011;52340;-6.720;108.544;2024-01-30T04:33:39;10.32;;;6.13;;
65641;SDS011;52340;-6.720;108.544;2024-01-30T04:34:41;11.93;;;6.72;;
65641;SDS011;52340;-6.720;108.544;2024-01-30T04:35:43;11.45;;;6.32;;
65641;SDS011;52340;-6.720;108.544;2024-01-30T04:36:45;11.48;;;6.43;;
65641;SDS011;52340;-6.720;108.544;2024-01-30T04:37:46;12.82;;;6.53;;
65641;SDS011;52340;-6.720;108.544;2024-01-30T04:38:48;13.10;;;7.00;;
65641;SDS011;52340;-6.720;108.544;2024-01-30T04:39:50;11.52;;;7.00;;
65641;SDS011;52340;-6.720;108.544;2024-01-30T04:40:54;11.60;;;7.28;;
65641;SDS011;52340;-6.720;108.544;2024-01-30T04:41:55;14.63;;;8.68;;
65641;SDS011;52340;-6.720;108.544;2024-01-30T04:42:57;12.75;;;7.78;;
65641;SDS011;52340;-6.720;108.544;2024-01-30T04:43:59;12.43;;;7.22;;
65641;SDS011;52340;-6.720;108.544;2024-01-30T04:45:01;11.88;;;6.85;;
65641;SDS011;52340;-6.720;108.544;2024-01-30T04:46:03;11.23;;;6.72;;
65641;SDS011;52340;-6.720;108.544;2024-01-30T04:47:05;12.93;;;7.50;;
65641;SDS011;52340;-6.720;108.544;2024-01-30T04:48:07;12.73;;;8.15;;
65641;SDS011;52340;-6.720;108.544;2024-01-30T04:49:09;11.88;;;7.57;;
65641;SDS011;52340;-6.720;108.544;2024-01-30T04:50:11;12.70;;;7.85;;
65641;SDS011;52340;-6.720;108.544;2024-01-30T04:51:12;12.20;;;8.60;;
65641;SDS011;52340;-6.720;108.544;2024-01-30T04:52:14;14.48;;;8.68;;
65641;SDS011;52340;-6.720;108.544;2024-01-30T04:53:16;14.77;;;8.95;;
65641;SDS011;52340;-6.720;108.544;2024-01-30T04:54:17;13.00;;;8.85;;
65641;SDS011;52340;-6.720;108.544;2024-01-30T04:55:19;13.65;;;8.30;;
65641;SDS011;52340;-6.720;108.544;2024-01-30T04:56:23;16.38;;;8.82;;
65641;SDS011;52340;-6.720;108.544;2024-01-30T04:57:24;15.60;;;7.97;;
65641;SDS011;52340;-6.720;108.544;2024-01-30T04:58:26;12.70;;;8.50;;
65641;SDS011;52340;-6.720;108.544;2024-01-30T04:59:28;16.67;;;8.65;;
65641;SDS011;52340;-6.720;108.544;2024-01-30T05:00:29;14.25;;;9.15;;
65641;SDS011;52340;-6.720;108.544;2024-01-30T05:01:31;13.75;;;9.13;;
65641;SDS011;52340;-6.720;108.544;2024-01-30T05:02:33;12.90;;;8.68;;
65641;SDS011;52340;-6.720;108.544;2024-01-30T05:03:35;13.55;;;9.07;;
65641;SDS011;52340;-6.720;108.544;2024-01-30T05:04:37;12.90;;;8.85;;
65641;SDS011;52340;-6.720;108.544;2024-01-30T05:05:38;14.07;;;9.52;;
65641;SDS011;52340;-6.720;108.544;2024-01-30T05:06:40;16.33;;;9.30;;
65641;SDS011;52340;-6.720;108.544;2024-01-30T05:07:42;13.90;;;9.65;;
65641;SDS011;52340;-6.720;108.544;2024-01-30T05:08:43;13.88;;;9.88;;
65641;SDS011;52340;-6.720;108.544;2024-01-30T05:09:45;14.13;;;9.38;;
65641;SDS011;52340;-6.720;108.544;2024-01-30T05:10:47;14.82;;;9.73;;
65641;SDS011;52340;-6.720;108.544;2024-01-30T05:11:50;14.82;;;9.93;;
65641;SDS011;52340;-6.720;108.544;2024-01-30T05:12:52;13.25;;;9.50;;
65641;SDS011;52340;-6.720;108.544;2024-01-30T05:13:54;16.25;;;10.57;;
65641;SDS011;52340;-6.720;108.544;2024-01-30T05:14:56;16.40;;;10.95;;
65641;SDS011;52340;-6.720;108.544;2024-01-30T05:15:57;15.45;;;11.20;;
65641;SDS011;52340;-6.720;108.544;2024-01-30T05:16:59;17.00;;;11.90;;
65641;SDS011;52340;-6.720;108.544;2024-01-30T05:18:03;17.42;;;12.75;;
65641;SDS011;52340;-6.720;108.544;2024-01-30T05:19:08;18.30;;;13.30;;
65641;SDS011;52340;-6.720;108.544;2024-01-30T05:20:10;18.23;;;13.15;;
65641;SDS011;52340;-6.720;108.544;2024-01-30T05:21:12;18.73;;;12.65;;
65641;SDS011;52340;-6.720;108.544;2024-01-30T05:22:14;17.77;;;12.85;;
65641;SDS011;52340;-6.720;108.544;2024-01-30T05:23:16;18.55;;;12.45;;
65641;SDS011;52340;-6.720;108.544;2024-01-30T05:24:18;16.70;;;11.90;;
65641;SDS011;52340;-6.720;108.544;2024-01-30T05:25:20;16.30;;;12.10;;
65641;SDS011;52340;-6.720;108.544;2024-01-30T05:26:25;19.33;;;12.98;;
65641;SDS011;52340;-6.720;108.544;2024-01-30T05:27:28;16.38;;;12.27;;
65641;SDS011;52340;-6.720;108.544;2024-01-30T05:28:30;18.30;;;12.73;;
65641;SDS011;52340;-6.720;108.544;2024-01-30T05:29:32;16.25;;;11.77;;
65641;SDS011;52340;-6.720;108.544;2024-01-30T05:30:34;19.00;;;13.35;;
65641;SDS011;52340;-6.720;108.544;2024-01-30T05:31:36;18.80;;;13.15;;
65641;SDS011;52340;-6.720;108.544;2024-01-30T05:32:38;17.85;;;12.63;;
65641;SDS011;52340;-6.720;108.544;2024-01-30T05:34:48;18.50;;;12.80;;
65641;SDS011;52340;-6.720;108.544;2024-01-30T05:35:50;16.73;;;12.25;;
65641;SDS011;52340;-6.720;108.544;2024-01-30T05:36:53;18.77;;;12.18;;
65641;SDS011;52340;-6.720;108.544;2024-01-30T05:37:55;17.23;;;11.18;;
65641;SDS011;52340;-6.720;108.544;2024-01-30T05:38:56;15.60;;;11.40;;
65641;SDS011;52340;-6.720;108.544;2024-01-30T05:39:58;15.43;;;11.07;;
65641;SDS011;52340;-6.720;108.544;2024-01-30T05:41:00;18.42;;;12.52;;
65641;SDS011;52340;-6.720;108.544;2024-01-30T05:42:02;17.20;;;11.95;;
65641;SDS011;52340;-6.720;108.544;2024-01-30T05:43:06;16.20;;;11.88;;
65641;SDS011;52340;-6.720;108.544;2024-01-30T05:44:07;17.38;;;12.30;;
65641;SDS011;52340;-6.720;108.544;2024-01-30T05:45:09;16.70;;;11.70;;
65641;SDS011;52340;-6.720;108.544;2024-01-30T05:46:11;16.90;;;12.23;;
65641;SDS011;52340;-6.720;108.544;2024-01-30T05:47:13;17.73;;;12.85;;
65641;SDS011;52340;-6.720;108.544;2024-01-30T05:48:15;16.77;;;12.20;;
65641;SDS011;52340;-6.720;108.544;2024-01-30T05:49:17;16.27;;;12.55;;
65641;SDS011;52340;-6.720;108.544;2024-01-30T05:50:19;17.00;;;11.82;;
65641;SDS011;52340;-6.720;108.544;2024-01-30T05:51:21;12.85;;;9.90;;
65641;SDS011;52340;-6.720;108.544;2024-01-30T05:52:22;15.13;;;10.55;;
65641;SDS011;52340;-6.720;108.544;2024-01-30T05:53:24;15.98;;;11.93;;
65641;SDS011;52340;-6.720;108.544;2024-01-30T05:54:26;15.93;;;11.82;;
65641;SDS011;52340;-6.720;108.544;2024-01-30T05:55:28;15.07;;;10.75;;